createdAt,value
2023-05-16T00:00:36.545Z,98269.53
2023-05-16T00:03:03.388Z,98265.84
2023-05-16T00:05:30.158Z,98266.31
2023-05-16T00:07:56.764Z,98271.28
2023-05-16T00:10:23.351Z,98262.78
2023-05-16T00:12:51.644Z,98251.03
2023-05-16T00:15:20.397Z,98255.41
2023-05-16T00:17:47.390Z,98266.88
2023-05-16T00:20:17.490Z,98260.66
2023-05-16T00:22:44.488Z,98261.44
2023-05-16T00:25:11.138Z,98261.13
2023-05-16T00:27:37.801Z,98261.78
2023-05-16T00:30:04.740Z,98263.38
2023-05-16T00:32:31.412Z,98257.94
2023-05-16T00:34:57.908Z,98265.50
2023-05-16T00:37:24.484Z,98259.72
2023-05-16T00:39:51.158Z,98261.78
2023-05-16T00:42:20.862Z,98255.06
2023-05-16T00:44:50.586Z,98261.00
2023-05-16T00:47:17.093Z,98260.19
2023-05-16T00:49:43.709Z,98254.28
2023-05-16T00:52:10.627Z,98261.63
2023-05-16T00:54:37.188Z,98262.88
2023-05-16T00:57:05.168Z,98256.66
2023-05-16T00:59:31.700Z,98252.63
2023-05-16T01:01:58.659Z,98257.25
2023-05-16T01:04:26.901Z,98265.28
2023-05-16T01:06:53.677Z,98264.81
2023-05-16T01:09:20.844Z,98272.66
2023-05-16T01:11:52.173Z,98260.13
2023-05-16T01:14:37.625Z,98267.78
2023-05-16T01:17:27.939Z,98265.38
2023-05-16T01:20:15.498Z,98258.94
2023-05-16T01:22:46.124Z,98252.88
2023-05-16T01:25:22.665Z,98261.03
2023-05-16T01:27:49.233Z,98247.72
2023-05-16T01:30:18.027Z,98259.56
2023-05-16T01:32:45.091Z,98258.25
2023-05-16T01:35:14.491Z,98255.34
2023-05-16T01:37:46.910Z,98266.22
2023-05-16T01:40:21.493Z,98267.34
2023-05-16T01:42:52.729Z,98262.53
2023-05-16T01:45:32.950Z,98259.31
2023-05-16T01:48:07.378Z,98260.25
2023-05-16T01:50:39.181Z,98262.78
2023-05-16T01:53:14.657Z,98260.69
2023-05-16T01:55:46.773Z,98265.00
2023-05-16T01:58:16.115Z,98260.38
2023-05-16T02:00:42.974Z,98265.00
2023-05-16T02:03:09.691Z,98259.41
2023-05-16T02:05:36.373Z,98255.41
2023-05-16T02:08:03.324Z,98263.41
2023-05-16T02:10:29.892Z,98262.59
2023-05-16T02:12:56.337Z,98255.41
2023-05-16T02:15:22.863Z,98260.19
2023-05-16T02:17:49.681Z,98268.66
2023-05-16T02:20:16.455Z,98265.63
2023-05-16T02:22:44.620Z,98264.63
2023-05-16T02:25:11.934Z,98267.06
2023-05-16T02:27:38.407Z,98264.63
2023-05-16T02:30:05.707Z,98263.03
2023-05-16T02:32:32.978Z,98274.91
2023-05-16T02:34:59.872Z,98272.66
2023-05-16T02:37:26.471Z,98261.75
2023-05-16T02:39:52.964Z,98265.69
2023-05-16T02:42:19.749Z,98271.63
2023-05-16T02:44:46.575Z,98267.63
2023-05-16T02:47:13.119Z,98266.81
2023-05-16T02:49:39.635Z,98274.75
2023-05-16T02:52:06.536Z,98277.47
2023-05-16T02:54:33.012Z,98282.13
2023-05-16T02:56:59.519Z,98273.78
2023-05-16T02:59:26.594Z,98275.41
2023-05-16T03:01:53.444Z,98282.13
2023-05-16T03:04:20.466Z,98285.94
2023-05-16T03:06:47.057Z,98269.97
2023-05-16T03:09:13.711Z,98273.16
2023-05-16T03:11:40.240Z,98264.84
2023-05-16T03:14:06.785Z,98270.75
2023-05-16T03:16:33.409Z,98273.78
2023-05-16T03:18:59.985Z,98272.19
2023-05-16T03:21:26.646Z,98275.03
2023-05-16T03:23:55.111Z,98273.63
2023-05-16T03:26:22.772Z,98273.44
2023-05-16T03:28:49.253Z,98276.25
2023-05-16T03:31:16.200Z,98279.28
2023-05-16T03:33:42.926Z,98274.47
2023-05-16T03:36:10.561Z,98277.69
2023-05-16T03:38:37.310Z,98284.09
2023-05-16T03:41:03.858Z,98277.06
2023-05-16T03:43:30.384Z,98283.50
2023-05-16T03:45:57.153Z,98281.75
2023-05-16T03:48:23.939Z,98281.75
2023-05-16T03:50:51.458Z,98284.09
2023-05-16T03:53:18.110Z,98281.06
2023-05-16T03:55:45.836Z,98282.69
2023-05-16T03:58:13.352Z,98282.06
2023-05-16T04:00:40.078Z,98279.66
2023-05-16T04:03:09.792Z,98280.25
2023-05-16T04:05:38.583Z,98280.41
2023-05-16T04:08:05.412Z,98278.97
2023-05-16T04:10:32.031Z,98278.66
2023-05-16T04:12:58.513Z,98296.06
2023-05-16T04:15:25.520Z,98287.75
2023-05-16T04:17:52.226Z,98299.56
2023-05-16T04:20:19.668Z,98305.50
2023-05-16T04:22:47.563Z,98311.94
2023-05-16T04:25:14.445Z,98309.22
2023-05-16T04:27:41.022Z,98315.66
2023-05-16T04:30:08.443Z,98318.38
2023-05-16T04:32:36.755Z,98315.13
2023-05-16T04:35:03.717Z,98322.28
2023-05-16T04:37:30.396Z,98314.81
2023-05-16T04:39:57.017Z,98307.16
2023-05-16T04:42:26.053Z,98312.88
2023-05-16T04:44:52.879Z,98322.22
2023-05-16T04:47:19.637Z,98307.94
2023-05-16T04:49:48.355Z,98311.94
2023-05-16T04:52:14.952Z,98314.88
2023-05-16T04:54:41.779Z,98313.75
2023-05-16T04:57:08.742Z,98319.34
2023-05-16T04:59:36.660Z,98327.38
2023-05-16T05:02:04.342Z,98330.00
2023-05-16T05:04:31.072Z,98329.34
2023-05-16T05:06:57.991Z,98327.53
2023-05-16T05:09:24.609Z,98327.00
2023-05-16T05:11:51.258Z,98333.56
2023-05-16T05:14:18.673Z,98325.84
2023-05-16T05:16:45.719Z,98335.44
2023-05-16T05:19:12.232Z,98326.97
2023-05-16T05:21:38.851Z,98329.34
2023-05-16T05:24:05.741Z,98327.16
2023-05-16T05:26:32.382Z,98322.94
2023-05-16T05:29:05.174Z,98322.47
2023-05-16T05:31:33.849Z,98324.56
2023-05-16T05:34:00.956Z,98328.56
2023-05-16T05:36:27.612Z,98332.22
2023-05-16T05:38:54.313Z,98330.09
2023-05-16T05:41:22.410Z,98334.84
2023-05-16T05:43:49.463Z,98330.84
2023-05-16T05:46:17.341Z,98339.88
2023-05-16T05:48:45.122Z,98340.97
2023-05-16T05:51:13.978Z,98331.84
2023-05-16T05:53:41.357Z,98346.66
2023-05-16T05:56:07.846Z,98340.59
2023-05-16T05:58:34.437Z,98345.44
2023-05-16T06:01:00.990Z,98347.41
2023-05-16T06:03:27.622Z,98354.44
2023-05-16T06:05:54.190Z,98352.41
2023-05-16T06:08:20.722Z,98355.13
2023-05-16T06:10:48.229Z,98354.19
2023-05-16T06:13:14.744Z,98365.44
2023-05-16T06:15:41.274Z,98361.78
2023-05-16T06:18:07.867Z,98366.41
2023-05-16T06:20:34.414Z,98359.84
2023-05-16T06:23:01.397Z,98366.66
2023-05-16T06:25:28.208Z,98362.19
2023-05-16T06:27:54.958Z,98369.47
2023-05-16T06:30:21.484Z,98373.31
2023-05-16T06:32:48.159Z,98384.31
2023-05-16T06:35:14.826Z,98374.19
2023-05-16T06:37:43.046Z,98381.59
2023-05-16T06:40:10.587Z,98374.38
2023-05-16T06:42:37.546Z,98373.06
2023-05-16T06:45:04.626Z,98382.44
2023-05-16T06:47:31.262Z,98375.25
2023-05-16T06:49:58.003Z,98375.38
2023-05-16T06:52:25.150Z,98386.75
2023-05-16T06:54:52.161Z,98382.31
2023-05-16T06:57:18.726Z,98387.75
2023-05-16T06:59:47.013Z,98376.50
2023-05-16T07:02:13.753Z,98385.16
2023-05-16T07:04:40.764Z,98374.63
2023-05-16T07:07:11.707Z,98392.75
2023-05-16T07:09:38.318Z,98392.56
2023-05-16T07:12:06.028Z,98385.34
2023-05-16T07:14:32.585Z,98388.88
2023-05-16T07:16:59.273Z,98390.94
2023-05-16T07:19:26.277Z,98388.22
2023-05-16T07:21:55.957Z,98389.22
2023-05-16T07:24:22.522Z,98389.94
2023-05-16T07:26:49.111Z,98394.84
2023-05-16T07:29:15.827Z,98397.94
2023-05-16T07:31:42.536Z,98404.72
2023-05-16T07:34:10.355Z,98400.16
2023-05-16T07:36:42.946Z,98402.31
2023-05-16T07:39:12.627Z,98406.00
2023-05-16T07:41:51.268Z,98406.81
2023-05-16T07:44:20.707Z,98403.09
2023-05-16T07:46:50.855Z,98405.00
2023-05-16T07:49:23.447Z,98408.84
2023-05-16T07:51:52.922Z,98411.75
2023-05-16T07:54:19.723Z,98406.59
2023-05-16T07:56:46.301Z,98409.66
2023-05-16T07:59:15.880Z,98417.22
2023-05-16T08:01:54.832Z,98422.34
2023-05-16T08:04:21.881Z,98422.13
2023-05-16T08:06:48.465Z,98440.38
2023-05-16T08:09:14.939Z,98418.09
2023-05-16T08:11:41.561Z,98427.09
2023-05-16T08:14:08.313Z,98429.19
2023-05-16T08:16:34.911Z,98429.81
2023-05-16T08:19:01.709Z,98420.38
2023-05-16T08:21:32.006Z,98430.47
2023-05-16T08:24:01.657Z,98438.63
2023-05-16T08:26:28.523Z,98434.91
2023-05-16T08:29:01.942Z,98443.88
2023-05-16T08:31:28.520Z,98440.09
2023-05-16T08:33:58.303Z,98439.25
2023-05-16T08:36:34.869Z,98440.00
2023-05-16T08:39:01.956Z,98442.56
2023-05-16T08:41:28.746Z,98434.56
2023-05-16T08:43:55.497Z,98448.38
2023-05-16T08:46:24.017Z,98435.44
2023-05-16T08:48:54.352Z,98447.91
2023-05-16T08:51:22.753Z,98451.22
2023-05-16T08:54:16.429Z,98459.91
2023-05-16T08:56:44.175Z,98456.56
2023-05-16T08:59:12.604Z,98464.66
2023-05-16T09:01:41.906Z,98464.06
2023-05-16T09:04:13.155Z,98467.06
2023-05-16T09:06:39.736Z,98462.84
2023-05-16T09:09:08.229Z,98463.59
2023-05-16T09:11:36.925Z,98466.84
2023-05-16T09:14:04.507Z,98476.69
2023-05-16T09:16:31.534Z,98464.97
2023-05-16T09:19:02.039Z,98462.03
2023-05-16T09:21:29.819Z,98462.25
2023-05-16T09:23:56.640Z,98464.22
2023-05-16T09:26:23.272Z,98460.88
2023-05-16T09:28:54.091Z,98455.25
2023-05-16T09:31:26.949Z,98463.47
2023-05-16T09:33:56.498Z,98466.78
2023-05-16T09:36:23.256Z,98466.63
2023-05-16T09:38:53.070Z,98463.31
2023-05-16T09:41:23.185Z,98471.16
2023-05-16T09:43:49.966Z,98459.41
2023-05-16T09:46:17.568Z,98456.13
2023-05-16T09:48:52.567Z,98456.06
2023-05-16T09:51:23.260Z,98455.19
2023-05-16T09:53:52.568Z,98454.97
2023-05-16T09:56:21.915Z,98459.47
2023-05-16T09:58:52.151Z,98466.22
2023-05-16T10:01:19.899Z,98452.59
2023-05-16T10:03:47.645Z,98457.59
2023-05-16T10:06:18.467Z,98455.78
2023-05-16T10:08:46.673Z,98465.19
2023-05-16T10:11:14.098Z,98464.34
2023-05-16T10:13:50.344Z,98455.53
2023-05-16T10:16:18.627Z,98456.13
2023-05-16T10:18:48.573Z,98455.88
2023-05-16T10:21:46.164Z,98455.78
2023-05-16T10:24:18.103Z,98448.16
2023-05-16T10:26:46.661Z,98466.63
2023-05-16T10:29:19.156Z,98450.44
2023-05-16T10:31:47.368Z,98463.44
2023-05-16T10:34:14.226Z,98459.25
2023-05-16T10:36:41.252Z,98460.06
2023-05-16T10:39:08.753Z,98453.47
2023-05-16T10:41:35.726Z,98455.88
2023-05-16T10:44:05.359Z,98455.56
2023-05-16T10:46:32.192Z,98462.13
2023-05-16T10:49:23.855Z,98461.44
2023-05-16T10:52:04.288Z,98462.69
2023-05-16T10:54:39.416Z,98459.91
2023-05-16T10:57:17.848Z,98465.47
2023-05-16T10:59:49.494Z,98466.06
2023-05-16T11:02:25.398Z,98460.75
2023-05-16T11:04:54.394Z,98462.47
2023-05-16T11:07:54.368Z,98469.16
2023-05-16T11:10:25.651Z,98467.97
2023-05-16T11:12:53.788Z,98474.28
2023-05-16T11:15:28.805Z,98470.53
2023-05-16T11:18:08.896Z,98479.00
2023-05-16T11:20:43.337Z,98476.75
2023-05-16T11:23:19.157Z,98480.59
2023-05-16T11:25:47.115Z,98487.47
2023-05-16T11:28:15.135Z,98492.34
2023-05-16T11:30:49.791Z,98484.38
2023-05-16T11:33:17.260Z,98482.34
2023-05-16T11:35:44.246Z,98489.22
2023-05-16T11:38:16.487Z,98495.47
2023-05-16T11:40:44.604Z,98482.50
2023-05-16T11:43:19.349Z,98495.84
2023-05-16T11:45:50.871Z,98489.44
2023-05-16T11:48:28.575Z,98490.66
2023-05-16T11:50:59.599Z,98493.47
2023-05-16T11:53:28.274Z,98498.91
2023-05-16T11:55:56.020Z,98504.03
2023-05-16T11:58:23.248Z,98498.81
2023-05-16T12:00:54.121Z,98511.19
2023-05-16T12:03:21.715Z,98505.75
2023-05-16T12:05:57.039Z,98509.75
2023-05-16T12:08:24.776Z,98508.97
2023-05-16T12:10:58.214Z,98507.94
2023-05-16T12:13:25.508Z,98504.09
2023-05-16T12:15:52.862Z,98516.69
2023-05-16T12:18:21.368Z,98516.75
2023-05-16T12:20:48.246Z,98520.50
2023-05-16T12:23:16.976Z,98520.75
2023-05-16T12:25:49.329Z,98519.50
2023-05-16T12:28:16.600Z,98525.72
2023-05-16T12:30:48.453Z,98523.84
2023-05-16T12:33:17.092Z,98530.78
2023-05-16T12:35:48.214Z,98525.44
2023-05-16T12:38:17.361Z,98532.50
2023-05-16T12:40:44.972Z,98517.28
2023-05-16T12:43:21.868Z,98527.84
2023-05-16T12:45:56.675Z,98527.97
2023-05-16T12:48:24.564Z,98526.09
2023-05-16T12:50:51.125Z,98520.00
2023-05-16T12:53:19.120Z,98517.16
2023-05-16T12:55:45.735Z,98528.19
2023-05-16T12:58:15.167Z,98527.66
2023-05-16T13:00:41.906Z,98527.75
2023-05-16T13:03:08.841Z,98536.25
2023-05-16T13:05:36.476Z,98529.41
2023-05-16T13:08:03.653Z,98534.25
2023-05-16T13:10:30.344Z,98549.44
2023-05-16T13:13:01.062Z,98540.66
2023-05-16T13:15:28.245Z,98536.41
2023-05-16T13:17:55.376Z,98538.81
2023-05-16T13:20:22.324Z,98543.38
2023-05-16T13:22:49.248Z,98548.03
2023-05-16T13:25:16.104Z,98550.91
2023-05-16T13:27:42.832Z,98557.38
2023-05-16T13:30:09.786Z,98557.53
2023-05-16T13:32:36.811Z,98566.03
2023-05-16T13:35:06.246Z,98561.22
2023-05-16T13:37:36.074Z,98558.47
2023-05-16T13:40:03.202Z,98563.41
2023-05-16T13:42:29.789Z,98570.09
2023-05-16T13:44:56.396Z,98570.53
2023-05-16T13:47:22.980Z,98572.03
2023-05-16T13:49:49.911Z,98575.75
2023-05-16T13:52:16.490Z,98563.97
2023-05-16T13:54:42.992Z,98561.94
2023-05-16T13:57:09.580Z,98575.56
2023-05-16T14:02:06.802Z,98585.34
2023-05-16T14:04:33.412Z,98579.94
2023-05-16T14:06:59.934Z,98570.28
2023-05-16T14:09:26.481Z,98576.22
2023-05-16T14:11:54.167Z,98574.50
2023-05-16T14:14:21.317Z,98570.75
2023-05-16T14:16:47.931Z,98575.75
2023-05-16T14:19:17.292Z,98576.56
2023-05-16T14:21:48.589Z,98574.72
2023-05-16T14:24:15.116Z,98576.53
2023-05-16T14:26:42.055Z,98581.16
2023-05-16T14:29:08.578Z,98568.47
2023-05-16T14:31:36.667Z,98578.88
2023-05-16T14:34:03.422Z,98571.81
2023-05-16T14:36:30.021Z,98571.50
2023-05-16T14:38:56.594Z,98572.69
2023-05-16T14:41:25.740Z,98574.88
2023-05-16T14:43:52.558Z,98581.00
2023-05-16T14:46:21.591Z,98579.19
2023-05-16T14:48:50.274Z,98576.81
2023-05-16T14:51:16.947Z,98583.75
2023-05-16T14:53:45.996Z,98579.22
2023-05-16T14:56:14.025Z,98590.75
2023-05-16T14:58:49.988Z,98584.50
2023-05-16T15:01:16.794Z,98593.28
2023-05-16T15:03:54.744Z,98598.22
2023-05-16T15:06:23.294Z,98590.78
2023-05-16T15:08:50.227Z,98600.06
2023-05-16T15:11:16.831Z,98602.28
2023-05-16T15:13:43.600Z,98598.75
2023-05-16T15:16:10.270Z,98600.16
2023-05-16T15:21:20.660Z,98594.78
2023-05-16T15:23:47.457Z,98590.97
2023-05-16T15:26:13.998Z,98596.63
2023-05-16T15:28:41.038Z,98592.69
2023-05-16T15:31:14.806Z,98595.56
2023-05-16T15:33:41.562Z,98598.38
2023-05-16T15:36:08.548Z,98595.06
2023-05-16T15:38:36.801Z,98607.22
2023-05-16T15:43:40.060Z,98605.88
2023-05-16T15:46:24.288Z,98596.88
2023-05-16T15:48:50.918Z,98591.69
2023-05-16T15:51:17.479Z,98599.97
2023-05-16T15:53:44.949Z,98598.19
2023-05-16T15:56:14.656Z,98598.19
2023-05-16T15:58:41.122Z,98610.25
2023-05-16T16:01:07.904Z,98609.75
2023-05-16T16:03:34.559Z,98605.09
2023-05-16T16:06:01.193Z,98608.16
2023-05-16T16:08:28.020Z,98611.47
2023-05-16T16:10:54.878Z,98619.97
2023-05-16T16:13:21.761Z,98609.00
2023-05-16T16:15:48.445Z,98606.09
2023-05-16T16:18:22.818Z,98606.72
2023-05-16T16:20:49.814Z,98600.16
2023-05-16T16:23:16.397Z,98610.94
2023-05-16T16:25:43.095Z,98617.34
2023-05-16T16:28:09.787Z,98615.16
2023-05-16T16:30:38.613Z,98618.84
2023-05-16T16:33:05.301Z,98614.72
2023-05-16T16:35:32.082Z,98625.34
2023-05-16T16:38:06.866Z,98622.81
2023-05-16T16:40:34.347Z,98624.09
2023-05-16T16:43:01.515Z,98626.72
2023-05-16T16:45:28.474Z,98619.16
2023-05-16T16:47:55.612Z,98624.00
2023-05-16T16:50:22.307Z,98632.97
2023-05-16T16:52:50.725Z,98627.69
2023-05-16T16:55:17.573Z,98641.81
2023-05-16T16:57:44.206Z,98634.78
2023-05-16T17:00:11.639Z,98636.13
2023-05-16T17:02:38.594Z,98636.72
2023-05-16T17:05:06.515Z,98639.59
2023-05-16T17:07:33.277Z,98642.91
2023-05-16T17:10:01.027Z,98640.34
2023-05-16T17:12:28.950Z,98653.44
2023-05-16T17:14:58.335Z,98652.75
2023-05-16T17:17:26.009Z,98648.25
2023-05-16T17:19:53.185Z,98652.56
2023-05-16T17:22:21.445Z,98655.28
2023-05-16T17:24:48.197Z,98654.06
2023-05-16T17:27:14.932Z,98654.38
2023-05-16T17:29:44.510Z,98653.59
2023-05-16T17:32:13.341Z,98653.44
2023-05-16T17:34:40.013Z,98652.84
2023-05-16T17:37:10.585Z,98651.53
2023-05-16T17:39:37.270Z,98656.06
2023-05-16T17:42:10.171Z,98657.13
2023-05-16T17:45:09.170Z,98657.06
2023-05-16T17:47:35.825Z,98662.97
2023-05-16T17:50:08.795Z,98665.59
2023-05-16T17:52:39.770Z,98666.81
2023-05-16T17:55:13.855Z,98662.81
2023-05-16T17:57:40.512Z,98655.56
2023-05-16T18:00:07.937Z,98662.72
2023-05-16T18:02:38.566Z,98669.94
2023-05-16T18:05:11.251Z,98672.75
2023-05-16T18:07:38.564Z,98685.09
2023-05-16T18:10:06.788Z,98689.53
2023-05-16T18:12:33.466Z,98692.38
2023-05-16T18:15:12.515Z,98697.63
2023-05-16T18:17:39.448Z,98688.78
2023-05-16T18:20:10.781Z,98692.13
2023-05-16T18:22:38.434Z,98698.47
2023-05-16T18:25:18.578Z,98701.28
2023-05-16T18:27:45.186Z,98699.66
2023-05-16T18:30:13.262Z,98704.72
2023-05-16T18:35:28.891Z,98715.78
2023-05-16T18:37:58.155Z,98716.81
2023-05-16T18:40:26.030Z,98723.88
2023-05-16T18:42:52.922Z,98727.31
2023-05-16T18:45:19.854Z,98731.25
2023-05-16T18:47:46.801Z,98729.41
2023-05-16T18:50:13.344Z,98731.47
2023-05-16T18:52:40.656Z,98729.63
2023-05-16T18:55:07.900Z,98738.69
2023-05-16T18:57:34.864Z,98734.97
2023-05-16T19:00:01.328Z,98742.63
2023-05-16T19:02:40.930Z,98738.91
2023-05-16T19:05:09.557Z,98740.09
2023-05-16T19:07:36.346Z,98752.66
2023-05-16T19:10:03.814Z,98758.22
2023-05-16T19:12:32.156Z,98758.31
2023-05-16T19:14:58.665Z,98771.69
2023-05-16T19:17:25.332Z,98767.16
2023-05-16T19:19:52.142Z,98767.25
2023-05-16T19:22:18.866Z,98766.50
2023-05-16T19:24:45.379Z,98768.50
2023-05-16T19:27:12.135Z,98779.47
2023-05-16T19:29:38.607Z,98785.00
2023-05-16T19:32:05.603Z,98792.72
2023-05-16T19:34:33.147Z,98793.88
2023-05-16T19:37:02.143Z,98795.28
2023-05-16T19:39:28.740Z,98801.59
2023-05-16T19:41:56.914Z,98803.25
2023-05-16T19:44:23.634Z,98804.97
2023-05-16T19:46:50.167Z,98813.66
2023-05-16T19:49:19.549Z,98815.94
2023-05-16T19:51:46.920Z,98816.00
2023-05-16T19:54:13.500Z,98812.28
2023-05-16T19:56:40.108Z,98806.63
2023-05-16T19:59:06.582Z,98813.44
2023-05-16T20:01:33.188Z,98816.47
2023-05-16T20:04:00.590Z,98814.00
2023-05-16T20:06:27.165Z,98816.22
2023-05-16T20:08:53.626Z,98815.72
2023-05-16T20:11:20.303Z,98823.06
2023-05-16T20:13:46.791Z,98824.97
2023-05-16T20:16:13.511Z,98826.56
2023-05-16T20:18:40.074Z,98824.41
2023-05-16T20:21:06.626Z,98829.84
2023-05-16T20:23:35.013Z,98830.44
2023-05-16T20:26:01.721Z,98835.88
2023-05-16T20:28:28.170Z,98833.47
2023-05-16T20:30:54.647Z,98833.22
2023-05-16T20:33:21.209Z,98838.94
2023-05-16T20:35:47.921Z,98843.06
2023-05-16T20:38:14.697Z,98839.81
2023-05-16T20:40:41.862Z,98845.00
2023-05-16T20:43:08.508Z,98840.16
2023-05-16T20:45:34.949Z,98839.34
2023-05-16T20:48:01.581Z,98854.00
2023-05-16T20:50:28.102Z,98844.56
2023-05-16T20:52:54.591Z,98849.19
2023-05-16T20:55:21.280Z,98848.38
2023-05-16T20:57:47.753Z,98849.72
2023-05-16T21:00:14.792Z,98843.28
2023-05-16T21:02:41.382Z,98853.88
2023-05-16T21:05:23.077Z,98864.53
2023-05-16T21:07:50.427Z,98857.53
2023-05-16T21:10:17.049Z,98862.41
2023-05-16T21:12:43.437Z,98860.81
2023-05-16T21:15:10.145Z,98858.16
2023-05-16T21:17:36.687Z,98864.66
2023-05-16T21:20:05.069Z,98864.94
2023-05-16T21:22:31.682Z,98873.09
2023-05-16T21:24:58.153Z,98873.09
2023-05-16T21:27:24.605Z,98875.84
2023-05-16T21:29:50.991Z,98876.13
2023-05-16T21:32:17.432Z,98878.34
2023-05-16T21:34:43.937Z,98877.28
2023-05-16T21:37:11.707Z,98885.47
2023-05-16T21:39:38.242Z,98886.03
2023-05-16T21:42:05.048Z,98888.22
2023-05-16T21:44:31.621Z,98893.66
2023-05-16T21:46:58.244Z,98894.75
2023-05-16T21:49:24.819Z,98903.44
2023-05-16T21:51:51.288Z,98900.78
2023-05-16T21:54:17.748Z,98904.84
2023-05-16T21:56:45.669Z,98903.53
2023-05-16T21:59:13.838Z,98909.50
2023-05-16T22:01:40.359Z,98911.44
2023-05-16T22:04:06.932Z,98910.66
2023-05-16T22:06:33.492Z,98909.31
2023-05-16T22:09:01.501Z,98918.81
2023-05-16T22:11:28.060Z,98906.66
2023-05-16T22:13:54.586Z,98912.59
2023-05-16T22:16:21.058Z,98912.88
2023-05-16T22:18:47.907Z,98911.56
2023-05-16T22:21:16.201Z,98916.19
2023-05-16T22:23:42.735Z,98924.34
2023-05-16T22:26:09.339Z,98924.91
2023-05-16T22:28:35.812Z,98926.78
2023-05-16T22:31:02.239Z,98921.13
2023-05-16T22:33:28.789Z,98924.41
2023-05-16T22:35:55.308Z,98921.16
2023-05-16T22:38:21.821Z,98926.34
2023-05-16T22:40:48.283Z,98926.38
2023-05-16T22:43:14.945Z,98919.63
2023-05-16T22:45:41.624Z,98923.69
2023-05-16T22:48:08.244Z,98916.13
2023-05-16T22:50:34.895Z,98919.13
2023-05-16T22:53:01.356Z,98916.69
2023-05-16T22:55:28.217Z,98925.06
2023-05-16T22:57:57.137Z,98920.22
2023-05-16T23:00:23.865Z,98923.47
2023-05-16T23:02:50.434Z,98928.34
2023-05-16T23:05:17.041Z,98927.84
2023-05-16T23:07:43.509Z,98936.22
2023-05-16T23:10:10.157Z,98929.47
2023-05-16T23:12:37.110Z,98938.13
2023-05-16T23:15:06.444Z,98943.03
2023-05-16T23:17:32.912Z,98943.03
2023-05-16T23:19:59.525Z,98947.13
2023-05-16T23:22:26.152Z,98950.06
2023-05-16T23:24:52.731Z,98948.75
2023-05-16T23:27:19.191Z,98951.19
2023-05-16T23:29:45.600Z,98952.00
2023-05-16T23:32:12.010Z,98958.78
2023-05-16T23:34:38.481Z,98959.88
2023-05-16T23:37:05.174Z,98965.81
2023-05-16T23:39:31.656Z,98959.88
2023-05-16T23:42:00.584Z,98966.38
2023-05-16T23:44:27.302Z,98967.19
2023-05-16T23:46:53.764Z,98965.81
2023-05-16T23:49:20.263Z,98976.63
2023-05-16T23:51:57.522Z,98979.91
2023-05-16T23:54:27.824Z,98977.72
2023-05-16T23:56:54.269Z,98977.47
2023-05-16T23:59:20.742Z,98980.97
